aviador You're here:

OIBL Decoded Metar

BANDAR LENGEH in IRAN
Report Time2017-12-18 08:00:00
UTC Time2017-12-18 08:58:23
Flight Rules vfr VFR
Wind040° at 08 kt
W.Decomp.*RWY 08: 6.0 kt HW 5.2 kt LCW
W.Rank040° ranks 36
Current wind is above 040° avg. (5.5)
Visibility9999 m
Phenomena:N/A
Clouds:Few 025 Hf
Scattered 100 Hf
Expected CloudBase > 2,800 ft AGL from Temp-Dew spread
CeilingNone
Temp21°C (ISA +6)
Dew Point14°C (64% RH)
AAT19.4°C
QNH1022 hPa
Density Alt669 ft
Elevation46 ft
Report Wrong Elevation
Raw Report
METAR OIBL 180800Z 04008KT 9999 FEW025 SCT100 21/14 Q1022=

Extra information for OIBL:More info

Metar Taf Metar & Taf Last 4 Metars F.Rules Stats Wind Profile Meteogram Temp Stats Airport Information Weather charts Add Link Nearby VenuesMetar ALERT Operation Metar Decoded Social comments